createdAt,value
2023-01-13T00:00:55.101Z,2.13
2023-01-13T00:05:49.712Z,1.38
2023-01-13T00:10:48.269Z,1.58
2023-01-13T00:13:15.871Z,1.73
2023-01-13T00:15:43.543Z,1.95
2023-01-13T00:18:11.085Z,1.80
2023-01-13T00:20:38.463Z,1.58
2023-01-13T00:25:33.307Z,2.20
2023-01-13T00:28:00.880Z,1.73
2023-01-13T00:30:28.614Z,1.75
2023-01-13T00:32:56.096Z,2.45
2023-01-13T00:37:50.702Z,1.52
2023-01-13T00:43:04.044Z,1.80
2023-01-13T00:45:31.450Z,2.15
2023-01-13T00:47:58.826Z,2.08
2023-01-13T00:52:54.561Z,1.98
2023-01-13T00:55:22.149Z,1.95
2023-01-13T00:57:49.565Z,2.75
2023-01-13T01:00:17.592Z,1.63
2023-01-13T01:02:45.088Z,2.08
2023-01-13T01:05:12.726Z,2.13
2023-01-13T01:07:40.093Z,2.85
2023-01-13T01:12:35.062Z,2.17
2023-01-13T01:15:04.304Z,2.22
2023-01-13T01:17:31.926Z,2.95
2023-01-13T01:19:59.507Z,2.17
2023-01-13T01:22:27.002Z,2.53
2023-01-13T01:24:54.503Z,2.30
2023-01-13T01:29:49.242Z,3.15
2023-01-13T01:32:16.647Z,1.67
2023-01-13T01:37:11.477Z,2.13
2023-01-13T01:39:38.920Z,2.05
2023-01-13T01:44:58.988Z,1.65
2023-01-13T01:47:28.173Z,1.95
2023-01-13T01:49:56.694Z,2.05
2023-01-13T01:52:33.808Z,2.45
2023-01-13T01:57:43.916Z,2.10
2023-01-13T02:00:12.896Z,2.70
2023-01-13T02:02:43.760Z,2.17
2023-01-13T02:05:11.863Z,1.70
2023-01-13T02:07:41.357Z,1.40
2023-01-13T02:10:11.893Z,2.55
2023-01-13T02:12:40.874Z,2.13
2023-01-13T02:15:37.156Z,1.80
2023-01-13T02:18:41.421Z,2.22
2023-01-13T02:21:39.617Z,1.95
2023-01-13T02:24:56.454Z,2.13
2023-01-13T02:27:43.979Z,1.60
2023-01-13T02:30:56.895Z,1.90
2023-01-13T02:33:42.539Z,1.98
2023-01-13T02:36:43.757Z,1.60
2023-01-13T02:39:26.164Z,1.65
2023-01-13T02:42:29.114Z,1.88
2023-01-13T02:45:01.375Z,2.08
2023-01-13T02:47:32.746Z,2.22
2023-01-13T02:50:03.972Z,2.00
2023-01-13T02:52:52.388Z,1.25
2023-01-13T02:55:34.913Z,1.50
2023-01-13T02:58:06.417Z,2.20
2023-01-13T03:00:35.340Z,3.22
2023-01-13T03:03:03.700Z,1.58
2023-01-13T03:05:33.296Z,2.40
2023-01-13T03:08:22.264Z,1.52
2023-01-13T03:11:16.266Z,2.00
2023-01-13T03:14:06.548Z,2.13
2023-01-13T03:16:40.023Z,2.00
2023-01-13T03:19:28.995Z,2.50
2023-01-13T03:22:07.972Z,2.15
2023-01-13T03:24:42.926Z,2.13
2023-01-13T03:27:37.646Z,2.10
2023-01-13T03:30:17.608Z,2.33
2023-01-13T03:32:57.184Z,2.70
2023-01-13T03:35:32.767Z,2.88
2023-01-13T03:38:06.640Z,2.25
2023-01-13T03:40:39.529Z,1.90
2023-01-13T03:43:31.745Z,1.95
2023-01-13T03:46:05.077Z,2.08
2023-01-13T03:48:36.061Z,2.60
2023-01-13T03:51:07.689Z,1.98
2023-01-13T03:53:40.268Z,2.03
2023-01-13T03:56:22.848Z,1.80
2023-01-13T03:58:52.996Z,2.20
2023-01-13T04:01:26.400Z,2.15
2023-01-13T04:04:29.283Z,2.08
2023-01-13T04:07:46.525Z,2.40
2023-01-13T04:10:19.951Z,2.30
2023-01-13T04:13:01.985Z,2.05
2023-01-13T04:15:42.557Z,2.33
2023-01-13T04:18:20.474Z,3.13
2023-01-13T04:20:50.632Z,2.25
2023-01-13T04:23:19.604Z,2.05
2023-01-13T04:25:48.130Z,3.08
2023-01-13T04:28:16.588Z,2.00
2023-01-13T04:30:44.575Z,2.40
2023-01-13T04:33:13.209Z,3.13
2023-01-13T04:35:41.411Z,2.40
2023-01-13T04:38:11.904Z,2.70
2023-01-13T04:40:40.654Z,3.63
2023-01-13T04:43:08.084Z,2.72
2023-01-13T04:48:02.871Z,2.15
2023-01-13T04:50:30.757Z,2.78
2023-01-13T04:52:58.339Z,3.00
2023-01-13T04:55:26.002Z,3.10
2023-01-13T04:57:53.949Z,3.30
2023-01-13T05:00:23.124Z,1.92
2023-01-13T05:02:51.726Z,2.17
2023-01-13T05:05:19.396Z,1.95
2023-01-13T05:07:47.013Z,1.75
2023-01-13T05:10:14.584Z,2.78
2023-01-13T05:13:00.733Z,2.15
2023-01-13T05:15:47.152Z,2.60
2023-01-13T05:18:15.101Z,2.03
2023-01-13T05:20:42.775Z,2.42
2023-01-13T05:23:28.461Z,2.45
2023-01-13T05:25:56.297Z,3.60
2023-01-13T05:28:23.740Z,2.10
2023-01-13T05:30:52.657Z,2.15
2023-01-13T05:33:20.840Z,2.28
2023-01-13T05:35:51.862Z,3.30
2023-01-13T05:38:19.379Z,1.98
2023-01-13T05:43:33.378Z,2.00
2023-01-13T05:46:03.622Z,2.17
2023-01-13T05:48:33.989Z,1.58
2023-01-13T05:51:03.337Z,1.83
2023-01-13T05:53:31.827Z,1.70
2023-01-13T05:55:59.904Z,1.88
2023-01-13T05:58:28.163Z,1.45
2023-01-13T06:01:03.487Z,1.88
2023-01-13T06:03:31.326Z,1.98
2023-01-13T06:06:01.856Z,1.88
2023-01-13T06:08:30.376Z,1.45
2023-01-13T06:10:57.806Z,2.22
2023-01-13T06:16:00.003Z,1.63
2023-01-13T06:18:28.484Z,1.65
2023-01-13T06:20:56.330Z,2.03
2023-01-13T06:23:24.364Z,2.13
2023-01-13T06:26:10.467Z,2.03
2023-01-13T06:28:38.125Z,2.63
2023-01-13T06:31:08.791Z,2.33
2023-01-13T06:33:43.734Z,1.40
2023-01-13T06:36:15.691Z,1.65
2023-01-13T06:38:47.665Z,1.98
2023-01-13T06:41:16.258Z,1.75
2023-01-13T06:43:43.825Z,1.80
2023-01-13T06:46:11.383Z,1.80
2023-01-13T06:48:38.919Z,1.83
2023-01-13T06:51:06.600Z,2.05
2023-01-13T06:53:34.018Z,1.85
2023-01-13T06:58:28.977Z,2.20
2023-01-13T07:01:00.340Z,1.65
2023-01-13T07:03:28.081Z,1.58
2023-01-13T07:05:56.223Z,2.55
2023-01-13T07:08:24.667Z,2.35
2023-01-13T07:10:53.155Z,2.10
2023-01-13T07:13:39.084Z,2.33
2023-01-13T07:16:08.575Z,2.67
2023-01-13T07:18:36.326Z,2.03
2023-01-13T07:21:06.314Z,2.08
2023-01-13T07:23:36.655Z,1.83
2023-01-13T07:26:05.357Z,1.27
2023-01-13T07:28:33.278Z,2.20
2023-01-13T07:31:01.539Z,1.50
2023-01-13T07:33:33.219Z,1.75
2023-01-13T07:36:03.983Z,2.20
2023-01-13T07:38:33.812Z,1.83
2023-01-13T07:41:40.556Z,2.08
2023-01-13T07:44:10.864Z,2.47
2023-01-13T07:46:39.570Z,3.30
2023-01-13T07:49:07.539Z,2.25
2023-01-13T07:51:38.627Z,2.55
2023-01-13T07:54:06.661Z,2.47
2023-01-13T07:56:34.313Z,2.63
2023-01-13T07:59:02.222Z,2.63
2023-01-13T08:01:32.227Z,2.35
2023-01-13T08:04:00.071Z,3.58
2023-01-13T08:06:27.840Z,2.00
2023-01-13T08:08:55.619Z,2.05
2023-01-13T08:11:23.730Z,2.45
2023-01-13T08:13:55.918Z,2.70
2023-01-13T08:16:23.887Z,2.63
2023-01-13T08:18:51.466Z,2.92
2023-01-13T08:21:19.121Z,2.08
2023-01-13T08:23:46.608Z,3.13
2023-01-13T08:26:17.303Z,2.90
2023-01-13T08:28:45.992Z,2.50
2023-01-13T08:31:16.406Z,2.10
2023-01-13T08:33:44.598Z,2.40
2023-01-13T08:36:12.800Z,2.92
2023-01-13T08:38:41.576Z,2.90
2023-01-13T08:41:14.521Z,2.45
2023-01-13T08:43:42.173Z,2.95
2023-01-13T08:46:09.983Z,3.65
2023-01-13T08:48:38.261Z,2.58
2023-01-13T08:51:09.185Z,2.90
2023-01-13T08:53:36.936Z,2.85
2023-01-13T08:56:11.779Z,4.75
2023-01-13T08:58:40.788Z,3.30
2023-01-13T09:01:10.124Z,2.50
2023-01-13T09:03:39.215Z,2.80
2023-01-13T09:06:06.855Z,2.58
2023-01-13T09:08:34.493Z,3.38
2023-01-13T09:11:22.157Z,2.65
2023-01-13T09:13:49.663Z,2.85
2023-01-13T09:16:17.133Z,3.78
2023-01-13T09:18:44.684Z,3.20
2023-01-13T09:21:21.136Z,3.05
2023-01-13T09:23:50.724Z,3.35
2023-01-13T09:26:21.724Z,2.90
2023-01-13T09:28:49.471Z,4.00
2023-01-13T09:31:17.121Z,4.05
2023-01-13T09:34:03.139Z,3.35
2023-01-13T09:36:30.676Z,3.17
2023-01-13T09:38:58.057Z,3.20
2023-01-13T09:41:47.667Z,2.80
2023-01-13T09:44:29.348Z,2.55
2023-01-13T09:47:02.604Z,4.25
2023-01-13T09:49:42.485Z,3.08
2023-01-13T09:52:25.139Z,2.45
2023-01-13T09:55:01.072Z,3.08
2023-01-13T09:57:32.525Z,2.97
2023-01-13T10:00:00.149Z,2.88
2023-01-13T10:02:46.601Z,3.00
2023-01-13T10:06:01.209Z,3.22
2023-01-13T10:08:34.974Z,3.53
2023-01-13T10:11:37.720Z,2.65
2023-01-13T10:14:19.596Z,3.05
2023-01-13T10:16:53.000Z,2.92
2023-01-13T10:19:45.726Z,3.05
2023-01-13T10:22:15.928Z,2.60
2023-01-13T10:24:49.528Z,3.45
2023-01-13T10:27:37.012Z,3.63
2023-01-13T10:30:16.339Z,4.32
2023-01-13T10:32:48.170Z,3.35
2023-01-13T10:35:15.869Z,3.85
2023-01-13T10:37:57.148Z,3.55
2023-01-13T10:40:26.089Z,2.85
2023-01-13T10:43:06.641Z,3.63
2023-01-13T10:45:34.276Z,3.40
2023-01-13T10:48:15.017Z,3.03
2023-01-13T10:50:44.306Z,3.58
2023-01-13T10:53:23.946Z,2.90
2023-01-13T10:56:05.325Z,2.88
2023-01-13T10:58:33.047Z,2.85
2023-01-13T11:01:06.255Z,3.53
2023-01-13T11:03:43.112Z,4.30
2023-01-13T11:06:21.293Z,3.85
2023-01-13T11:08:51.349Z,3.45
2023-01-13T11:11:43.322Z,3.47
2023-01-13T11:14:37.111Z,3.20
2023-01-13T11:17:46.501Z,2.88
2023-01-13T11:20:41.322Z,3.17
2023-01-13T11:23:18.788Z,3.25
2023-01-13T11:25:53.119Z,2.70
2023-01-13T11:28:45.939Z,3.15
2023-01-13T11:31:39.836Z,2.25
2023-01-13T11:34:17.898Z,2.88
2023-01-13T11:36:53.512Z,3.42
2023-01-13T11:39:30.467Z,2.90
2023-01-13T11:42:21.493Z,2.83
2023-01-13T11:44:57.615Z,2.65
2023-01-13T11:47:27.128Z,3.03
2023-01-13T11:49:55.026Z,3.08
2023-01-13T11:52:28.269Z,3.67
2023-01-13T11:55:39.902Z,3.08
2023-01-13T11:58:13.097Z,3.15
2023-01-13T12:01:06.614Z,2.78
2023-01-13T12:03:41.613Z,3.10
2023-01-13T12:06:28.266Z,3.28
2023-01-13T12:08:55.730Z,3.45
2023-01-13T12:14:02.310Z,2.90
2023-01-13T12:16:31.771Z,3.55
2023-01-13T12:19:30.716Z,3.05
2023-01-13T12:22:02.155Z,2.60
2023-01-13T12:24:38.259Z,3.15
2023-01-13T12:27:18.031Z,3.25
2023-01-13T12:29:49.240Z,2.83
2023-01-13T12:32:24.551Z,3.45
2023-01-13T12:35:16.703Z,3.25
2023-01-13T12:37:52.624Z,3.53
2023-01-13T12:40:47.148Z,3.58
2023-01-13T12:43:38.986Z,3.28
2023-01-13T12:46:23.629Z,3.65
2023-01-13T12:48:57.345Z,3.28
2023-01-13T12:51:56.975Z,3.58
2023-01-13T12:54:30.490Z,2.95
2023-01-13T12:56:59.252Z,3.40
2023-01-13T12:59:26.966Z,3.17
2023-01-13T13:02:13.274Z,3.00
2023-01-13T13:04:53.205Z,3.10
2023-01-13T13:07:32.157Z,3.05
2023-01-13T13:10:30.437Z,3.50
2023-01-13T13:13:19.817Z,3.58
2023-01-13T13:15:49.606Z,3.00
2023-01-13T13:18:16.991Z,3.00
2023-01-13T13:24:04.183Z,2.88
2023-01-13T13:26:37.550Z,3.95
2023-01-13T13:29:12.214Z,3.15
2023-01-13T13:31:57.571Z,3.42
2023-01-13T13:34:32.655Z,2.53
2023-01-13T13:37:30.796Z,3.08
2023-01-13T13:40:16.997Z,3.45
2023-01-13T13:43:06.438Z,2.95
2023-01-13T13:45:52.600Z,2.60
2023-01-13T13:48:21.388Z,3.45
2023-01-13T13:50:50.941Z,3.20
2023-01-13T13:53:20.123Z,3.08
2023-01-13T13:55:57.325Z,4.00
2023-01-13T13:58:26.623Z,3.00
2023-01-13T14:00:54.894Z,3.20
2023-01-13T14:03:29.526Z,4.15
2023-01-13T14:06:02.857Z,3.47
2023-01-13T14:08:37.201Z,2.78
2023-01-13T14:11:37.219Z,2.60
2023-01-13T14:14:14.574Z,2.83
2023-01-13T14:16:42.166Z,3.03
2023-01-13T14:19:33.325Z,3.08
2023-01-13T14:22:02.955Z,2.90
2023-01-13T14:24:31.747Z,3.80
2023-01-13T14:27:18.885Z,4.03
2023-01-13T14:29:47.060Z,3.17
2023-01-13T14:32:19.929Z,2.83
2023-01-13T14:34:47.652Z,2.95
2023-01-13T14:37:32.245Z,3.17
2023-01-13T14:39:59.784Z,3.38
2023-01-13T14:42:28.668Z,2.78
2023-01-13T14:44:56.446Z,2.70
2023-01-13T14:47:33.780Z,2.72
2023-01-13T14:50:22.089Z,2.63
2023-01-13T14:52:54.676Z,2.92
2023-01-13T14:55:40.964Z,3.00
2023-01-13T14:58:31.027Z,2.95
2023-01-13T15:01:29.068Z,4.25
2023-01-13T15:04:26.907Z,3.50
2023-01-13T15:06:56.679Z,2.60
2023-01-13T15:09:38.614Z,3.47
2023-01-13T15:12:39.559Z,2.80
2023-01-13T15:15:22.546Z,3.15
2023-01-13T15:17:50.149Z,2.60
2023-01-13T15:20:20.670Z,3.50
2023-01-13T15:22:49.158Z,2.65
2023-01-13T15:25:17.826Z,3.25
2023-01-13T15:27:47.899Z,3.40
2023-01-13T15:30:19.074Z,3.00
2023-01-13T15:32:46.968Z,3.05
2023-01-13T15:35:16.011Z,3.10
2023-01-13T15:37:44.738Z,4.32
2023-01-13T15:40:18.648Z,4.93
2023-01-13T15:43:05.169Z,6.15
2023-01-13T15:45:53.985Z,4.82
2023-01-13T15:48:23.448Z,3.22
2023-01-13T15:50:51.633Z,3.60
2023-01-13T15:53:19.312Z,2.45
2023-01-13T15:55:51.082Z,3.35
2023-01-13T15:58:24.183Z,2.45
2023-01-13T16:00:51.696Z,2.33
2023-01-13T16:03:19.387Z,2.40
2023-01-13T16:05:46.925Z,2.08
2023-01-13T16:08:22.895Z,2.38
2023-01-13T16:10:50.834Z,3.53
2023-01-13T16:13:18.506Z,2.60
2023-01-13T16:15:49.243Z,1.92
2023-01-13T16:18:19.760Z,2.42
2023-01-13T16:20:47.685Z,3.45
2023-01-13T16:23:15.169Z,2.63
2023-01-13T16:28:21.280Z,2.40
2023-01-13T16:30:49.079Z,2.43
2023-01-13T16:33:17.341Z,2.80
2023-01-13T16:36:10.787Z,2.22
2023-01-13T16:38:32.326Z,2.60
2023-01-13T16:40:59.831Z,2.38
2023-01-13T16:43:27.945Z,3.28
2023-01-13T16:45:55.464Z,2.08
2023-01-13T16:48:23.053Z,2.17
2023-01-13T16:50:50.608Z,2.90
2023-01-13T16:53:18.210Z,2.40
2023-01-13T16:55:45.726Z,2.47
2023-01-13T16:58:23.623Z,2.88
2023-01-13T17:00:54.335Z,2.30
2023-01-13T17:03:22.101Z,2.53
2023-01-13T17:05:49.528Z,2.25
2023-01-13T17:08:18.255Z,2.63
2023-01-13T17:10:47.083Z,2.22
2023-01-13T17:13:16.932Z,2.67
2023-01-13T17:15:45.967Z,2.03
2023-01-13T17:18:13.705Z,2.42
2023-01-13T17:20:41.697Z,2.53
2023-01-13T17:23:09.521Z,2.22
2023-01-13T17:25:37.278Z,2.20
2023-01-13T17:28:05.009Z,2.13
2023-01-13T17:30:32.733Z,2.25
2023-01-13T17:33:00.260Z,2.50
2023-01-13T17:35:27.827Z,2.55
2023-01-13T17:37:55.319Z,2.42
2023-01-13T17:42:50.565Z,2.42
2023-01-13T17:45:18.253Z,3.90
2023-01-13T17:47:47.414Z,3.00
2023-01-13T17:50:22.343Z,2.72
2023-01-13T17:52:50.015Z,2.85
2023-01-13T17:55:17.541Z,2.50
2023-01-13T17:57:44.984Z,3.08
2023-01-13T18:00:12.856Z,2.78
2023-01-13T18:02:40.285Z,2.50
2023-01-13T18:05:08.012Z,3.38
2023-01-13T18:07:35.520Z,2.80
2023-01-13T18:12:30.383Z,3.63
2023-01-13T18:14:57.804Z,3.00
2023-01-13T18:17:25.264Z,4.57
2023-01-13T18:22:57.292Z,3.70
2023-01-13T18:25:43.811Z,2.80
2023-01-13T18:28:11.425Z,3.90
2023-01-13T18:30:38.841Z,3.35
2023-01-13T18:33:06.422Z,3.05
2023-01-13T18:38:08.578Z,3.95
2023-01-13T18:40:36.024Z,3.90
2023-01-13T18:43:03.547Z,3.35
2023-01-13T18:45:32.099Z,3.70
2023-01-13T18:48:02.327Z,3.00
2023-01-13T18:50:31.060Z,4.30
2023-01-13T18:52:58.744Z,3.40
2023-01-13T18:55:28.599Z,4.97
2023-01-13T18:57:56.884Z,5.05
2023-01-13T19:00:25.417Z,3.28
2023-01-13T19:05:35.940Z,3.60
2023-01-13T19:08:04.491Z,3.20
2023-01-13T19:10:32.788Z,3.60
2023-01-13T19:13:01.713Z,3.38
2023-01-13T19:15:29.555Z,3.95
2023-01-13T19:17:57.308Z,3.22
2023-01-13T19:20:24.963Z,3.72
2023-01-13T19:22:54.540Z,3.53
2023-01-13T19:25:22.185Z,4.03
2023-01-13T19:27:49.648Z,4.43
2023-01-13T19:32:44.987Z,3.65
2023-01-13T19:35:13.269Z,3.40
2023-01-13T19:37:40.943Z,3.78
2023-01-13T19:40:15.825Z,3.45
2023-01-13T19:43:04.853Z,3.05
2023-01-13T19:45:35.201Z,4.38
2023-01-13T19:48:05.331Z,3.80
2023-01-13T19:50:37.649Z,5.80
2023-01-13T19:53:06.051Z,3.97
2023-01-13T19:55:33.784Z,3.47
2023-01-13T19:58:01.531Z,3.10
2023-01-13T20:00:29.250Z,3.35
2023-01-13T20:03:00.757Z,3.20
2023-01-13T20:05:28.953Z,4.88
2023-01-13T20:07:56.670Z,4.10
2023-01-13T20:10:25.038Z,2.75
2023-01-13T20:12:52.885Z,3.05
2023-01-13T20:15:20.773Z,4.32
2023-01-13T20:17:48.257Z,3.65
2023-01-13T20:20:16.981Z,3.55
2023-01-13T20:22:45.119Z,3.95
2023-01-13T20:25:17.045Z,3.40
2023-01-13T20:27:46.063Z,2.70
2023-01-13T20:30:14.583Z,2.90
2023-01-13T20:32:43.941Z,3.38
2023-01-13T20:35:12.102Z,2.50
2023-01-13T20:37:41.711Z,2.83
2023-01-13T20:40:13.055Z,2.70
2023-01-13T20:42:49.478Z,2.53
2023-01-13T20:45:20.434Z,3.95
2023-01-13T20:47:48.235Z,2.38
2023-01-13T20:50:16.069Z,2.00
2023-01-13T20:52:44.218Z,2.40
2023-01-13T20:55:12.581Z,2.60
2023-01-13T20:57:41.646Z,2.53
2023-01-13T21:00:16.868Z,2.25
2023-01-13T21:02:44.627Z,2.50
2023-01-13T21:05:12.170Z,3.17
2023-01-13T21:07:39.702Z,2.90
2023-01-13T21:10:07.990Z,3.33
2023-01-13T21:12:53.881Z,3.17
2023-01-13T21:15:22.865Z,2.88
2023-01-13T21:18:10.373Z,3.08
2023-01-13T21:20:39.151Z,3.55
2023-01-13T21:23:06.825Z,2.85
2023-01-13T21:25:36.457Z,2.63
2023-01-13T21:28:07.789Z,3.13
2023-01-13T21:30:38.287Z,3.13
2023-01-13T21:33:06.485Z,2.38
2023-01-13T21:35:37.857Z,2.25
2023-01-13T21:38:05.343Z,3.40
2023-01-13T21:43:19.268Z,4.20
2023-01-13T21:46:05.703Z,2.97
2023-01-13T21:48:33.227Z,2.30
2023-01-13T21:53:28.977Z,3.00
2023-01-13T21:55:56.645Z,2.95
2023-01-13T21:58:24.245Z,2.80
2023-01-13T22:00:51.681Z,2.97
2023-01-13T22:03:20.200Z,2.78
2023-01-13T22:05:54.692Z,3.20
2023-01-13T22:08:22.299Z,2.60
2023-01-13T22:10:57.781Z,2.92
2023-01-13T22:13:45.846Z,2.72
2023-01-13T22:16:14.450Z,3.15
2023-01-13T22:18:41.915Z,3.28
2023-01-13T22:21:09.688Z,3.30
2023-01-13T22:23:37.059Z,4.15
2023-01-13T22:28:40.940Z,2.83
2023-01-13T22:31:13.316Z,3.28
2023-01-13T22:33:42.187Z,4.43
2023-01-13T22:36:15.349Z,3.10
2023-01-13T22:38:43.007Z,2.85
2023-01-13T22:41:11.024Z,3.50
2023-01-13T22:43:39.023Z,3.25
2023-01-13T22:46:11.730Z,3.67
2023-01-13T22:48:40.409Z,2.95
2023-01-13T22:51:10.011Z,2.67
2023-01-13T22:53:38.641Z,2.88
2023-01-13T22:56:06.949Z,3.10
2023-01-13T22:58:34.487Z,3.85
2023-01-13T23:01:13.107Z,3.97
2023-01-13T23:03:40.984Z,3.28
2023-01-13T23:06:08.475Z,3.08
2023-01-13T23:08:36.667Z,3.50
2023-01-13T23:11:06.477Z,3.75
2023-01-13T23:13:34.801Z,2.85
2023-01-13T23:16:08.123Z,3.83
2023-01-13T23:18:35.707Z,3.00
2023-01-13T23:21:13.284Z,3.22
2023-01-13T23:23:40.819Z,3.38
2023-01-13T23:26:09.395Z,3.05
2023-01-13T23:28:37.587Z,3.15
2023-01-13T23:31:14.236Z,3.17
2023-01-13T23:33:43.609Z,3.03
2023-01-13T23:36:16.374Z,4.32
2023-01-13T23:38:44.002Z,3.75
2023-01-13T23:41:15.229Z,3.20
2023-01-13T23:43:42.817Z,2.88
2023-01-13T23:46:12.714Z,3.67
2023-01-13T23:48:40.575Z,3.25
2023-01-13T23:51:10.963Z,3.08
2023-01-13T23:53:41.590Z,3.03
2023-01-13T23:56:13.813Z,3.08
2023-01-13T23:58:42.669Z,2.78
